Terminal Aerodrome Forecast
Issued by NWS

Home | Current Version | Previous Version | Text Only | Print | Product List | Glossary On
Versions: 1 2 3 4 5 6 7 8 9 10 11 12 13 14 15
000
FTUS46 KLOX 212345
TAFSBA
TAF
KSBA 212345Z 2200/2224 25011KT P6SM SCT250
     FM220200 VRB03KT P6SM SCT250
     FM220700 08004KT 6SM BR SCT004 SCT250
     FM221300 VRB03KT 4SM BR BKN004
     FM221600 16005KT 6SM BR SCT007
     FM222000 25012KT P6SM SCT250=

USA.gov is the U.S. government's official web portal to all federal, state and local government web resources and services.